23 de mayo de 2022

Hora Código Tiempo Temp. Visibilidad Nubes Viento METAR/SPECI
18:25
M
14 °C 6 km - 280°   280° 13 kt METAR EHMA 231625Z AUTO 28013KT 6000 -RA NSC 14/13 Q0997 RERA REDZ
17:55
V
15 °C 8 km - 280°   280° 10 kt METAR EHMA 231555Z AUTO 28010KT 8000 -DZ FEW039 15/13 Q0997
17:25
V
19 °C 10 km+ - 240°   240° 6 kt METAR EHMA 231525Z AUTO 24006KT 9999 -RA FEW039 19/14 Q0997
16:55
V
21 °C 10 km+ - 180°   180° 11 kt METAR EHMA 231455Z AUTO 18011KT 9999 DZ NSC 21/13 Q0997
16:25
V
20 °C 10 km+ - 130°   130° 20 kt METAR EHMA 231425Z AUTO 13020KT 9999 NSC 20/13 Q0998
15:55
V
21 °C 10 km+ - 140°   140° 17 kt METAR EHMA 231355Z AUTO 14017KT 9999 -RA NSC 21/12 Q0998
15:25
V
22 °C 10 km+ - 100°   100° 13 kt METAR EHMA 231325Z AUTO 10013KT 9999 NSC 22/12 Q0999
14:55
V
21 °C 10 km+ - 110°   110° 16 kt METAR EHMA 231255Z AUTO 11016KT 9999 NSC 21/12 Q0999
14:25
V
21 °C 10 km+ - 110°   110° 12 kt METAR EHMA 231225Z AUTO 11012KT 9999 NSC 21/12 Q1000
13:55
V
20 °C 10 km+ - 110°   110° 10 kt METAR EHMA 231155Z AUTO 11010KT 9999 NSC 20/13 Q1000
13:25
L
20 °C 0 m - Var   000° 0 kt METAR EHMA 231125Z AUTO /////KT //// // NSC 20/13 Q1001
12:55
V
20 °C 10 km+ - 120°   120° 14 kt METAR EHMA 231055Z AUTO 12014KT 9999 NSC 20/13 Q1001
12:25
V
19 °C 10 km+ - 120°   120° 13 kt METAR EHMA 231025Z AUTO 12013KT 9999 NSC 19/13 Q1002
11:55
V
18 °C 10 km+ - 120°   120° 13 kt METAR EHMA 230955Z AUTO 12013KT 9999 NSC 18/12 Q1002
11:25
V
17 °C 10 km+ - 110°   110° 12 kt METAR EHMA 230925Z AUTO 11012KT 9999 NSC 17/12 Q1002
10:55
V
17 °C 10 km+ - 110°   110° 12 kt METAR EHMA 230855Z AUTO 11012KT 9999 NSC 17/12 Q1003
10:25
V
17 °C 10 km+ - 120°   120° 13 kt METAR EHMA 230825Z AUTO 12013KT 9999 NSC 17/11 Q1003
09:55
V
16 °C 10 km+ - 120°   120° 15 kt METAR EHMA 230755Z AUTO 12015KT 9999 NSC 16/11 Q1004
09:25
V
15 °C 10 km+ - 110°   110° 14 kt METAR EHMA 230725Z AUTO 11014KT 9999 NSC 15/11 Q1004
08:55
V
14 °C 10 km+ - 120°   120° 14 kt METAR EHMA 230655Z AUTO 12014KT 9999 NSC 14/10 Q1004
08:25
V
14 °C 10 km+ - 120°   120° 15 kt METAR EHMA 230625Z AUTO 12015KT 9999 NSC 14/10 Q1005
07:55
V
14 °C 10 km+ - 110°   110° 18 kt METAR EHMA 230555Z AUTO 11018KT 9999 NSC 14/09 Q1005
07:25
V
14 °C 10 km+ - 110°   110° 17 kt METAR EHMA 230525Z AUTO 11017KT 9999 NSC 14/09 Q1005
06:55
V
14 °C 10 km+ - 110°   110° 17 kt METAR EHMA 230455Z AUTO 11017KT 9999 NSC 14/10 Q1005
06:25
V
14 °C 10 km+ - 110°   110° 17 kt METAR EHMA 230425Z AUTO 11017KT 9999 NSC 14/09 Q1006
05:55
V
14 °C 10 km+ - 110°   110° 20 kt METAR EHMA 230355Z AUTO 11020KT 9999 NSC 14/09 Q1006
05:25
V
14 °C 10 km+ - 110°   110° 21 kt METAR EHMA 230325Z AUTO 11021KT 9999 NSC 14/09 Q1007
04:55
V
14 °C 10 km+ - 110°   110° 21 kt METAR EHMA 230255Z AUTO 11021KT 9999 NSC 14/09 Q1007
04:25
V
14 °C 10 km+ - 110°   110° 19 kt METAR EHMA 230225Z AUTO 11019KT 9999 NSC 14/09 Q1007
03:55
V
14 °C 10 km+ - 110°   110° 18 kt METAR EHMA 230155Z AUTO 11018KT 9999 NSC 14/09 Q1008
03:25
V
14 °C 10 km+ - 110°   110° 19 kt METAR EHMA 230125Z AUTO 11019KT 9999 NSC 14/09 Q1008
02:55
V
15 °C 10 km+ - 110°   110° 19 kt METAR EHMA 230055Z AUTO 11019KT 9999 NSC 15/10 Q1009
02:25
V
15 °C 10 km+ - 120°   120° 20 kt METAR EHMA 230025Z AUTO 12020KT 9999 NSC 15/10 Q1009
01:55
V
15 °C 10 km+ - 110°   110° 20 kt METAR EHMA 222355Z AUTO 11020KT 9999 NSC 15/10 Q1009
01:25
V
15 °C 10 km+ - 120°   120° 19 kt METAR EHMA 222325Z AUTO 12019KT 9999 NSC 15/10 Q1010
00:55
V
16 °C 10 km+ - 110°   110° 21 kt METAR EHMA 222255Z AUTO 11021KT 9999 NSC 16/10 Q1010
00:25
V
16 °C 10 km+ - 110°   110° 20 kt METAR EHMA 222225Z AUTO 11020KT 9999 NSC 16/10 Q1010

22 de mayo de 2022

Hora Código Tiempo Temp. Visibilidad Nubes Viento METAR/SPECI
23:55
V
16 °C 10 km+ - 110°   110° 20 kt METAR EHMA 222155Z AUTO 11020KT 9999 NSC 16/10 Q1010
23:25
V
16 °C 10 km+ - 110°   110° 17 kt METAR EHMA 222125Z AUTO 11017KT 9999 NSC 16/11 Q1010
22:55
V
16 °C 10 km+ - 110°   110° 17 kt METAR EHMA 222055Z AUTO 11017KT 9999 NSC 16/11 Q1011
22:25
V
17 °C 10 km+ - 110°   110° 18 kt METAR EHMA 222025Z AUTO 11018KT 9999 NSC 17/11 Q1011
21:55
V
17 °C 10 km+ - 110°   110° 17 kt METAR EHMA 221955Z AUTO 11017KT 9999 NSC 17/11 Q1011
21:25
V
17 °C 10 km+ - 100°   100° 18 kt METAR EHMA 221925Z AUTO 10018KT 9999 NSC 17/11 Q1011
20:55
V
18 °C 10 km+ - 100°   100° 16 kt METAR EHMA 221855Z AUTO 10016KT 9999 FEW046 18/11 Q1012
20:25
V
18 °C 10 km+ - 110°   110° 14 kt METAR EHMA 221825Z AUTO 11014KT 9999 FEW041 SCT047 18/11 Q1012
19:55
V
16 °C 10 km+ - 080°   080° 8 kt METAR EHMA 221755Z AUTO 08008KT 030V140 9999 FEW041 SCT047 16/12 Q1012
19:25
V
16 °C 10 km+ - 080°   080° 8 kt METAR EHMA 221725Z AUTO 08008KT 020V130 9999 FEW047 16/12 Q1013
18:55
V
16 °C 10 km+ - 080°   080° 9 kt METAR EHMA 221655Z AUTO 08009KT 040V130 9999 NSC 16/12 Q1013
18:25
V
16 °C 10 km+ - 070°   070° 8 kt METAR EHMA 221625Z AUTO 07008KT 9999 NSC 16/11 Q1013
17:55
V
15 °C 10 km+ - 050°   050° 8 kt METAR EHMA 221555Z AUTO 05008KT 9999 NSC 15/11 Q1014
17:25
V
16 °C 10 km+ - 050°   050° 6 kt METAR EHMA 221525Z AUTO 05006KT 9999 FEW045 16/11 Q1014
16:55
V
16 °C 10 km+ - 060°   060° 5 kt METAR EHMA 221455Z AUTO 06005KT 9999 FEW046 16/11 Q1014
16:25
V
16 °C 10 km+ - 060°   060° 4 kt METAR EHMA 221425Z AUTO 06004KT 040V130 9999 FEW042 16/11 Q1015
15:55
V
16 °C 10 km+ - 070°   070° 4 kt METAR EHMA 221355Z AUTO 07004KT 020V140 9999 FEW042 16/10 Q1015
15:25
V
16 °C 10 km+ - 080°   080° 4 kt METAR EHMA 221325Z AUTO 08004KT 360V160 9999 NSC 16/11 Q1015
14:55
V
15 °C 10 km+ - 080°   080° 4 kt METAR EHMA 221255Z AUTO 08004KT 010V160 9999 NSC 15/11 Q1015
14:25
V
15 °C 10 km+ - 050°   050° 4 kt METAR EHMA 221225Z AUTO 05004KT 9999 NSC 15/11 Q1015
13:55
V
15 °C 10 km+ - 020°   020° 3 kt METAR EHMA 221155Z AUTO 02003KT 9999 FEW033 15/10 Q1016
13:25
V
15 °C 10 km+ - 350°   350° 3 kt METAR EHMA 221125Z AUTO 35003KT 260V060 9999 FEW033 SCT040 15/09 Q1016
12:55
V
15 °C 10 km+ - 020°   020° 4 kt METAR EHMA 221055Z AUTO 02004KT 350V050 9999 FEW026 15/10 Q1016
12:25
V
15 °C 10 km+ - 300°   300° 3 kt METAR EHMA 221025Z AUTO 30003KT 9999 FEW026 15/09 Q1016
11:55
V
16 °C 10 km+ - 250°   250° 3 kt METAR EHMA 220955Z AUTO 25003KT 9999 FEW025 16/09 Q1017
11:25
V
15 °C 10 km+ - 250°   250° 4 kt METAR EHMA 220925Z AUTO 25004KT 9999 NSC 15/09 Q1017
10:55
V
15 °C 10 km+ - 210°   210° 5 kt METAR EHMA 220855Z AUTO 21005KT 9999 NSC 15/09 Q1017
10:25
V
15 °C 10 km+ - 220°   220° 7 kt METAR EHMA 220825Z AUTO 22007KT 9999 NSC 15/09 Q1017
09:55
V
14 °C 10 km+ - Var   Var 8 kt METAR EHMA 220755Z AUTO VRB08KT 9999 NCD 14/10 Q1017
09:25
V
14 °C 10 km+ - 210°   210° 8 kt METAR EHMA 220725Z AUTO 21008KT 160V280 9999 NCD 14/10 Q1017
08:55
V
13 °C 10 km+ - 200°   200° 8 kt METAR EHMA 220655Z AUTO 20008KT 170V240 9999 NCD 13/11 Q1017
08:25
V
12 °C 10 km+ - 200°   200° 9 kt METAR EHMA 220625Z AUTO 20009KT 9999 NCD 12/11 Q1017
07:55
V
12 °C 10 km+ - 200°   200° 10 kt METAR EHMA 220555Z AUTO 20010KT 9999 NCD 12/10 Q1017
07:25
V
12 °C 10 km+ - 200°   200° 10 kt METAR EHMA 220525Z AUTO 20010KT 9999 NSC 12/10 Q1017
06:55
V
12 °C 10 km+ - 200°   200° 6 kt METAR EHMA 220455Z AUTO 20006KT 9999 NSC 12/10 Q1017
06:25
V
12 °C 10 km+ - 210°   210° 3 kt METAR EHMA 220425Z AUTO 21003KT 9999 NSC 12/10 Q1017
05:55
V
12 °C 10 km+ - 200°   200° 4 kt METAR EHMA 220355Z AUTO 20004KT 9999 NSC 12/09 Q1017
05:25
V
13 °C 10 km+ - 250°   250° 5 kt METAR EHMA 220325Z AUTO 25005KT 210V270 9999 NSC 13/07 Q1018
04:55
V
13 °C 10 km+ - 260°   260° 4 kt METAR EHMA 220255Z AUTO 26004KT 220V290 9999 NSC 13/09 Q1018
04:25
V
13 °C 10 km+ - 280°   280° 6 kt METAR EHMA 220225Z AUTO 28006KT 9999 NSC 13/09 Q1018
03:55
V
13 °C 10 km+ - 270°   270° 6 kt METAR EHMA 220155Z AUTO 27006KT 9999 NSC 13/09 Q1018
03:25
V
13 °C 10 km+ - 280°   280° 8 kt METAR EHMA 220125Z AUTO 28008KT 9999 NSC 13/09 Q1018
02:55
V
13 °C 10 km+ - 280°   280° 7 kt METAR EHMA 220055Z AUTO 28007KT 9999 NSC 13/08 Q1018
02:25
V
13 °C 10 km+ - 290°   290° 7 kt METAR EHMA 220025Z AUTO 29007KT 9999 NSC 13/09 Q1018
01:55
V
13 °C 10 km+ - 290°   290° 7 kt METAR EHMA 212355Z AUTO 29007KT 9999 NSC 13/09 Q1019
01:25
V
13 °C 10 km+ - 290°   290° 8 kt METAR EHMA 212325Z AUTO 29008KT 9999 NSC 13/08 Q1019
00:55
V
13 °C 10 km+ - 270°   270° 7 kt METAR EHMA 212255Z AUTO 27007KT 9999 NSC 13/08 Q1019
00:25
V
13 °C 10 km+ - 260°   260° 7 kt METAR EHMA 212225Z AUTO 26007KT 9999 NSC 13/08 Q1019

21 de mayo de 2022

Hora Código Tiempo Temp. Visibilidad Nubes Viento METAR/SPECI
23:55
V
13 °C 10 km+ - 240°   240° 6 kt METAR EHMA 212155Z AUTO 24006KT 9999 NSC 13/10 Q1019
23:25
V
13 °C 10 km+ - 250°   250° 6 kt METAR EHMA 212125Z AUTO 25006KT 9999 NSC 13/09 Q1019
22:55
V
13 °C 10 km+ - 280°   280° 7 kt METAR EHMA 212055Z AUTO 28007KT 9999 NSC 13/09 Q1020
22:25
V
13 °C 10 km+ - 290°   290° 9 kt METAR EHMA 212025Z AUTO 29009KT 9999 NSC 13/09 Q1020
21:55
V
13 °C 10 km+ - 290°   290° 10 kt METAR EHMA 211955Z AUTO 29010KT 9999 NSC 13/08 Q1020
21:25
V
13 °C 10 km+ - 300°   300° 11 kt METAR EHMA 211925Z AUTO 30011KT 9999 NSC 13/08 Q1020
20:55
V
13 °C 10 km+ - 290°   290° 12 kt METAR EHMA 211855Z AUTO 29012KT 9999 NSC 13/08 Q1020
20:25
V
13 °C 10 km+ - 290°   290° 11 kt METAR EHMA 211825Z AUTO 29011KT 9999 FEW014 13/09 Q1019
19:55
V
13 °C 10 km+ - 290°   290° 12 kt METAR EHMA 211755Z AUTO 29012KT 9999 FEW016 13/09 Q1020
19:25
V
13 °C 10 km+ - 290°   290° 13 kt METAR EHMA 211725Z AUTO 29013KT 9999 FEW014 13/09 Q1020
18:55
V
13 °C 10 km+ - 290°   290° 12 kt METAR EHMA 211655Z AUTO 29012KT 9999 FEW014 13/09 Q1019
18:25
V
13 °C 10 km+ - 290°   290° 13 kt METAR EHMA 211625Z AUTO 29013KT 9999 FEW013 13/09 Q1020
17:55
V
13 °C 10 km+ - 280°   280° 13 kt METAR EHMA 211555Z AUTO 28013KT 9999 FEW011 13/09 Q1020
17:25
V
13 °C 10 km+ - 290°   290° 13 kt METAR EHMA 211525Z AUTO 29013KT 9999 FEW011 13/10 Q1020
16:55
V
13 °C 10 km+ - 280°   280° 15 kt METAR EHMA 211455Z AUTO 28015KT 9999 FEW011 13/10 Q1020
Datos más antiguos

Descarga nuestra aplicación

Acceso fácil a todo el tiempo de la aviación en tu teléfono móvil y tableta.
Con muchas funciones no disponibles en el sitio web, como la compatibilidad sin conexión y una lista personal de aeropuertos.

Nosotros y terceros seguimos tu comportamiento en Internet en nuestro sitio web con cookies. Si continúas, asumimos que estás de acuerdo con nuestra política de cookies. Más información